Time;durP1;ratioP1;P1;durP2;ratioP2;P2;SDS_P1;SDS_P2;PMS_P1;PMS_P2;Temp;Humidity;BMP_temperature;BMP_pressure;BME280_temperature;BME280_humidity;BME280_pressure;Samples;Min_cycle;Max_cycle;Signal;HPM_P1;HPM_P2
2023/03/01 00:00:40;;;;;;;;;21.00;20.75;;;;;;;;5072581;28;45605;-56
2023/03/01 00:03:06;;;;;;;;;22.75;19.00;;;;;;;;5072671;27;45519;-59
2023/03/01 00:05:31;;;;;;;;;19.00;19.00;;;;;;;;5072727;27;45515;-54
2023/03/01 00:07:57;;;;;;;;;24.00;21.25;;;;;;;;5072619;28;45403;-57
2023/03/01 00:10:22;;;;;;;;;28.00;20.25;;;;;;;;5072381;27;45526;-61
2023/03/01 00:12:47;;;;;;;;;21.50;21.50;;;;;;;;5072692;27;45555;-57
2023/03/01 00:15:12;;;;;;;;;27.25;24.00;;;;;;;;5072786;27;45692;-54
2023/03/01 00:17:37;;;;;;;;;26.25;23.25;;;;;;;;5072303;27;45511;-51
2023/03/01 00:20:03;;;;;;;;;26.75;24.25;;;;;;;;5072598;27;45471;-54
2023/03/01 00:22:28;;;;;;;;;23.75;22.25;;;;;;;;5072588;27;45490;-57
2023/03/01 00:24:53;;;;;;;;;22.75;20.50;;;;;;;;5072648;27;45416;-57
2023/03/01 00:27:19;;;;;;;;;24.00;24.00;;;;;;;;5071884;27;46402;-55
2023/03/01 00:29:44;;;;;;;;;21.00;19.00;;;;;;;;5072488;28;45484;-56
2023/03/01 00:32:09;;;;;;;;;24.00;22.25;;;;;;;;5072402;27;45532;-55
2023/03/01 00:34:35;;;;;;;;;23.25;20.00;;;;;;;;5072624;28;45459;-55
2023/03/01 00:37:05;;;;;;;;;22.00;19.25;;;;;;;;5072149;27;45442;-55
2023/03/01 00:39:31;;;;;;;;;21.00;20.50;;;;;;;;5072422;27;45586;-55
2023/03/01 00:41:56;;;;;;;;;20.50;18.75;;;;;;;;5057993;28;45452;-56
2023/03/01 00:44:21;;;;;;;;;20.50;20.25;;;;;;;;5072207;27;45694;-54
2023/03/01 00:46:46;;;;;;;;;20.00;20.00;;;;;;;;5072004;28;46020;-56
2023/03/01 00:49:12;;;;;;;;;22.50;20.50;;;;;;;;5072290;28;45745;-57
2023/03/01 00:51:37;;;;;;;;;21.00;21.00;;;;;;;;5072171;28;45442;-53
2023/03/01 00:54:02;;;;;;;;;18.75;18.75;;;;;;;;5072201;27;45510;-57
2023/03/01 00:56:28;;;;;;;;;24.75;22.50;;;;;;;;5072077;28;45533;-54
2023/03/01 00:58:53;;;;;;;;;22.25;20.75;;;;;;;;5071926;27;45360;-57
2023/03/01 01:01:20;;;;;;;;;22.25;22.00;;;;;;;;5074744;27;45557;-56
2023/03/01 01:03:53;;;;;;;;;29.75;22.25;;;;;;;;5075882;27;45571;-53
2023/03/01 01:06:20;;;;;;;;;22.00;21.75;;;;;;;;5057549;27;45514;-54
2023/03/01 01:08:46;;;;;;;;;27.50;24.75;;;;;;;;5075392;27;45520;-57
2023/03/01 01:11:11;;;;;;;;;21.25;20.50;;;;;;;;5075499;27;45523;-57
2023/03/01 01:13:37;;;;;;;;;21.50;21.50;;;;;;;;5075369;27;45578;-57
2023/03/01 01:16:02;;;;;;;;;25.00;22.00;;;;;;;;5057236;28;45866;-56
2023/03/01 01:18:27;;;;;;;;;21.00;18.25;;;;;;;;5075495;27;45419;-54
2023/03/01 01:20:52;;;;;;;;;26.00;23.75;;;;;;;;5075562;27;45452;-58
2023/03/01 01:23:18;;;;;;;;;20.50;19.00;;;;;;;;5057421;28;45508;-56
2023/03/01 01:25:43;;;;;;;;;23.75;20.00;;;;;;;;5075081;27;45443;-56
2023/03/01 01:28:08;;;;;;;;;23.00;23.00;;;;;;;;5075205;27;45503;-53
2023/03/01 01:30:33;;;;;;;;;20.25;20.00;;;;;;;;5075128;27;45374;-56
2023/03/01 01:32:59;;;;;;;;;20.25;17.00;;;;;;;;5075351;28;45649;-56
2023/03/01 01:35:24;;;;;;;;;23.00;23.00;;;;;;;;5074946;27;45481;-59
2023/03/01 01:37:49;;;;;;;;;25.50;24.00;;;;;;;;5074915;27;45411;-57
2023/03/01 01:40:14;;;;;;;;;20.00;19.75;;;;;;;;5069166;27;45535;-55
2023/03/01 01:42:39;;;;;;;;;25.25;24.25;;;;;;;;5066863;28;45408;-59
2023/03/01 01:45:23;;;;;;;;;22.75;22.75;;;;;;;;5056398;28;45500;-57
2023/03/01 01:47:48;;;;;;;;;22.75;19.25;;;;;;;;5054999;27;45506;-53
2023/03/01 01:50:18;;;;;;;;;25.00;25.00;;;;;;;;5055829;28;45408;-50
2023/03/01 01:52:43;;;;;;;;;20.25;20.25;;;;;;;;5060430;28;45546;-52
2023/03/01 01:55:10;;;;;;;;;24.50;23.50;;;;;;;;5071869;27;45572;-53
2023/03/01 01:57:41;;;;;;;;;25.50;21.00;;;;;;;;5063583;27;45543;-57
2023/03/01 02:00:26;;;;;;;;;25.25;25.25;;;;;;;;5074737;28;45545;-57
2023/03/01 02:02:54;;;;;;;;;30.50;24.00;;;;;;;;5074784;27;45424;-51
2023/03/01 02:05:20;;;;;;;;;19.50;16.25;;;;;;;;5060103;27;46262;-57
2023/03/01 02:07:46;;;;;;;;;26.00;24.25;;;;;;;;5074441;27;45455;-54
2023/03/01 02:10:11;;;;;;;;;25.50;21.75;;;;;;;;5074637;28;46024;-59
2023/03/01 02:12:37;;;;;;;;;24.75;22.50;;;;;;;;5073985;27;45619;-53
2023/03/01 02:15:03;;;;;;;;;21.00;20.75;;;;;;;;5056487;27;45544;-56
2023/03/01 02:17:28;;;;;;;;;24.00;21.00;;;;;;;;5074332;27;45467;-51
2023/03/01 02:19:56;;;;;;;;;24.75;23.00;;;;;;;;5074569;27;45735;-53
2023/03/01 02:22:27;;;;;;;;;23.00;21.25;;;;;;;;5059947;28;45547;-54
2023/03/01 02:24:52;;;;;;;;;21.25;19.75;;;;;;;;5074017;27;46095;-55
2023/03/01 02:27:21;;;;;;;;;23.25;23.25;;;;;;;;5074222;27;45432;-53
2023/03/01 02:29:47;;;;;;;;;25.50;21.50;;;;;;;;5074507;27;45439;-54
2023/03/01 02:32:12;;;;;;;;;22.50;22.50;;;;;;;;5074249;28;45474;-56
2023/03/01 02:34:38;;;;;;;;;28.50;23.00;;;;;;;;5074058;27;46073;-53
2023/03/01 02:37:06;;;;;;;;;28.00;21.50;;;;;;;;5074269;27;45545;-52
2023/03/01 02:39:41;;;;;;;;;26.25;24.00;;;;;;;;5074242;27;45500;-54
2023/03/01 02:42:10;;;;;;;;;25.75;19.50;;;;;;;;5074005;27;45407;-52
2023/03/01 02:44:35;;;;;;;;;15.75;13.25;;;;;;;;5073730;27;46366;-53
2023/03/01 02:47:02;;;;;;;;;28.50;24.75;;;;;;;;5074249;27;45419;-53
2023/03/01 02:49:30;;;;;;;;;27.75;24.50;;;;;;;;5073331;27;45484;-54
2023/03/01 02:52:04;;;;;;;;;21.25;20.25;;;;;;;;5073800;27;45620;-52
2023/03/01 02:54:33;;;;;;;;;22.25;22.25;;;;;;;;5073720;27;45534;-55
2023/03/01 02:57:00;;;;;;;;;26.00;24.25;;;;;;;;5045972;28;45462;-55
2023/03/01 02:59:28;;;;;;;;;25.00;22.25;;;;;;;;5074203;27;45534;-58
2023/03/01 03:01:53;;;;;;;;;26.00;24.00;;;;;;;;5073942;27;45510;-55
2023/03/01 03:04:20;;;;;;;;;19.75;19.75;;;;;;;;5073796;27;45512;-60
2023/03/01 03:06:46;;;;;;;;;23.00;21.75;;;;;;;;5073547;27;45550;-54
2023/03/01 03:09:12;;;;;;;;;27.25;23.75;;;;;;;;5073754;27;45604;-57
2023/03/01 03:11:39;;;;;;;;;23.00;21.50;;;;;;;;5073622;27;45388;-54
2023/03/01 03:14:04;;;;;;;;;23.00;22.50;;;;;;;;5054958;27;47695;-60
2023/03/01 03:16:29;;;;;;;;;30.25;23.25;;;;;;;;5073575;27;45498;-57
2023/03/01 03:18:55;;;;;;;;;25.25;25.25;;;;;;;;5073592;28;45438;-57
2023/03/01 03:21:20;;;;;;;;;20.75;20.75;;;;;;;;5073688;27;45464;-59
2023/03/01 03:23:45;;;;;;;;;29.00;26.75;;;;;;;;5072119;27;46012;-52
2023/03/01 03:26:13;;;;;;;;;26.50;25.25;;;;;;;;5073417;28;45354;-54
2023/03/01 03:28:39;;;;;;;;;21.75;21.50;;;;;;;;5073059;27;45470;-57
2023/03/01 03:31:05;;;;;;;;;18.75;18.75;;;;;;;;5073282;27;45608;-54
2023/03/01 03:33:31;;;;;;;;;27.00;22.25;;;;;;;;5073134;28;46297;-54
2023/03/01 03:35:56;;;;;;;;;21.25;21.25;;;;;;;;5073229;27;45476;-56
2023/03/01 03:38:22;;;;;;;;;26.50;24.75;;;;;;;;5073270;27;45420;-55
2023/03/01 03:40:48;;;;;;;;;28.25;21.75;;;;;;;;5073188;27;45596;-54
2023/03/01 03:43:15;;;;;;;;;28.25;28.25;;;;;;;;5073126;27;46238;-53
2023/03/01 03:45:41;;;;;;;;;26.25;24.00;;;;;;;;5073116;27;45442;-53
2023/03/01 03:48:09;;;;;;;;;25.50;21.50;;;;;;;;5073339;28;45502;-58
2023/03/01 03:50:34;;;;;;;;;30.00;27.25;;;;;;;;5073208;27;45562;-58
2023/03/01 03:53:03;;;;;;;;;25.75;24.50;;;;;;;;5072957;27;46227;-59
2023/03/01 03:55:30;;;;;;;;;28.75;27.25;;;;;;;;5064945;27;45454;-55
2023/03/01 03:57:57;;;;;;;;;23.75;22.00;;;;;;;;5067118;27;45466;-55
2023/03/01 04:00:23;;;;;;;;;19.00;18.00;;;;;;;;5072959;27;45545;-56
2023/03/01 04:02:49;;;;;;;;;23.50;22.50;;;;;;;;5072876;27;45943;-54
2023/03/01 04:05:15;;;;;;;;;25.50;24.50;;;;;;;;5072855;27;45466;-58
2023/03/01 04:07:41;;;;;;;;;27.50;25.25;;;;;;;;5072973;28;45533;-53
2023/03/01 04:10:08;;;;;;;;;27.75;26.00;;;;;;;;5072808;27;45560;-55
2023/03/01 04:12:33;;;;;;;;;29.25;28.25;;;;;;;;5072639;28;45529;-56
2023/03/01 04:14:59;;;;;;;;;31.50;27.50;;;;;;;;5054280;28;45487;-55
2023/03/01 04:17:24;;;;;;;;;28.75;25.25;;;;;;;;5072834;28;45506;-58
2023/03/01 04:19:50;;;;;;;;;29.00;26.00;;;;;;;;5054611;28;45629;-50
2023/03/01 04:22:18;;;;;;;;;29.50;26.25;;;;;;;;5072427;27;46313;-56
2023/03/01 04:24:43;;;;;;;;;26.25;26.25;;;;;;;;5072681;27;45520;-57
2023/03/01 04:27:08;;;;;;;;;27.00;23.50;;;;;;;;5072706;28;45483;-54
2023/03/01 04:29:33;;;;;;;;;25.00;23.00;;;;;;;;5072402;28;45849;-54
2023/03/01 04:31:59;;;;;;;;;24.00;24.00;;;;;;;;5072188;27;45623;-58
2023/03/01 04:34:26;;;;;;;;;30.50;28.75;;;;;;;;5072586;27;45460;-57
2023/03/01 04:36:51;;;;;;;;;25.00;23.00;;;;;;;;5075933;27;45545;-57
2023/03/01 04:39:16;;;;;;;;;33.00;29.00;;;;;;;;5076038;27;45689;-56
2023/03/01 04:41:43;;;;;;;;;18.50;14.75;;;;;;;;5075972;27;46103;-57
2023/03/01 04:44:09;;;;;;;;;28.00;25.75;;;;;;;;5075740;27;45590;-53
2023/03/01 04:46:34;;;;;;;;;26.50;25.50;;;;;;;;5076154;27;46096;-54
2023/03/01 04:48:59;;;;;;;;;25.25;24.75;;;;;;;;5075844;27;45560;-56
2023/03/01 04:51:24;;;;;;;;;29.00;28.75;;;;;;;;5075766;28;45545;-55
2023/03/01 04:53:49;;;;;;;;;26.50;24.75;;;;;;;;5075843;27;45668;-55
2023/03/01 04:56:15;;;;;;;;;20.25;17.50;;;;;;;;5061550;28;45941;-50
2023/03/01 04:58:41;;;;;;;;;30.50;29.00;;;;;;;;5075798;27;45600;-55
2023/03/01 05:01:14;;;;;;;;;27.50;24.50;;;;;;;;5075486;28;45671;-54
2023/03/01 05:03:40;;;;;;;;;22.50;21.75;;;;;;;;5075763;27;45405;-57
2023/03/01 05:06:05;;;;;;;;;34.25;31.25;;;;;;;;5076135;27;45986;-53
2023/03/01 05:08:34;;;;;;;;;30.50;27.25;;;;;;;;5075353;27;45490;-51
2023/03/01 05:10:59;;;;;;;;;30.00;27.25;;;;;;;;5075399;27;46534;-57
2023/03/01 05:13:24;;;;;;;;;30.75;26.50;;;;;;;;5075215;28;45490;-58
2023/03/01 05:16:00;;;;;;;;;31.75;29.25;;;;;;;;5075635;27;45411;-54
2023/03/01 05:18:26;;;;;;;;;25.25;23.25;;;;;;;;5057180;28;45377;-54
2023/03/01 05:20:52;;;;;;;;;32.75;31.00;;;;;;;;5075255;27;46640;-55
2023/03/01 05:23:18;;;;;;;;;30.25;28.75;;;;;;;;5075233;27;45581;-58
2023/03/01 05:25:43;;;;;;;;;28.75;27.50;;;;;;;;5075223;27;45608;-55
2023/03/01 05:28:12;;;;;;;;;31.00;29.50;;;;;;;;5056846;27;45592;-54
2023/03/01 05:30:38;;;;;;;;;25.25;25.25;;;;;;;;5074866;27;46018;-54
2023/03/01 05:33:04;;;;;;;;;29.50;27.75;;;;;;;;5075051;27;45481;-54
2023/03/01 05:35:32;;;;;;;;;25.50;23.75;;;;;;;;5075249;27;45534;-56
2023/03/01 05:37:58;;;;;;;;;30.25;27.25;;;;;;;;5057008;27;45357;-57
2023/03/01 05:40:23;;;;;;;;;27.75;24.75;;;;;;;;5075219;27;45453;-54
2023/03/01 05:42:52;;;;;;;;;24.50;24.50;;;;;;;;5074902;27;45419;-59
2023/03/01 05:45:17;;;;;;;;;27.50;27.50;;;;;;;;5075310;27;45573;-49
2023/03/01 05:47:44;;;;;;;;;32.75;29.50;;;;;;;;5073795;27;45680;-50
2023/03/01 05:50:11;;;;;;;;;31.25;28.25;;;;;;;;5074977;27;46083;-54
2023/03/01 05:52:36;;;;;;;;;32.75;30.00;;;;;;;;5074740;27;45484;-52
2023/03/01 05:55:01;;;;;;;;;35.00;29.00;;;;;;;;5070723;27;45386;-55
2023/03/01 05:57:27;;;;;;;;;34.50;32.25;;;;;;;;5064707;27;45407;-55
2023/03/01 05:59:53;;;;;;;;;32.25;30.25;;;;;;;;5074497;27;45472;-53
2023/03/01 06:02:18;;;;;;;;;35.75;28.50;;;;;;;;5074702;27;45490;-56
2023/03/01 06:04:43;;;;;;;;;31.00;29.50;;;;;;;;5074865;28;45510;-56
2023/03/01 06:07:08;;;;;;;;;30.75;27.00;;;;;;;;5074613;27;45475;-55
2023/03/01 06:09:33;;;;;;;;;34.50;31.75;;;;;;;;5074568;27;45387;-53
2023/03/01 06:11:59;;;;;;;;;32.75;31.00;;;;;;;;5074552;27;45493;-52
2023/03/01 06:14:24;;;;;;;;;32.50;30.00;;;;;;;;5074840;27;45539;-55
2023/03/01 06:16:50;;;;;;;;;29.25;25.50;;;;;;;;5074511;27;45529;-51
2023/03/01 06:19:15;;;;;;;;;34.00;33.00;;;;;;;;5074227;27;45673;-53
2023/03/01 06:21:40;;;;;;;;;34.50;33.25;;;;;;;;5074244;28;45534;-59
2023/03/01 06:24:07;;;;;;;;;37.50;34.00;;;;;;;;5074326;27;46207;-56
2023/03/01 06:26:32;;;;;;;;;37.50;35.25;;;;;;;;5074426;27;45489;-56
2023/03/01 06:28:57;;;;;;;;;35.75;32.25;;;;;;;;5073702;27;46250;-55
2023/03/01 06:31:22;;;;;;;;;38.00;35.25;;;;;;;;5074231;27;45457;-55
2023/03/01 06:33:47;;;;;;;;;32.00;31.75;;;;;;;;5074105;28;45667;-54
2023/03/01 06:36:13;;;;;;;;;33.25;32.75;;;;;;;;5055965;27;45684;-53
2023/03/01 06:38:40;;;;;;;;;40.25;35.25;;;;;;;;5073979;27;46012;-53
2023/03/01 06:41:05;;;;;;;;;39.25;32.50;;;;;;;;5073734;27;45468;-53
2023/03/01 06:43:30;;;;;;;;;39.00;37.75;;;;;;;;5074260;27;45496;-56
2023/03/01 06:45:56;;;;;;;;;40.50;36.50;;;;;;;;5074058;27;45457;-55
2023/03/01 06:48:21;;;;;;;;;34.50;33.00;;;;;;;;5074046;27;45466;-54
2023/03/01 06:50:46;;;;;;;;;38.00;34.00;;;;;;;;5073747;27;45404;-53
2023/03/01 06:53:11;;;;;;;;;33.25;33.25;;;;;;;;5074017;27;45512;-58
2023/03/01 06:55:36;;;;;;;;;38.25;37.75;;;;;;;;5064894;28;45482;-56
2023/03/01 06:58:02;;;;;;;;;35.75;35.25;;;;;;;;5068209;27;46474;-57
2023/03/01 07:00:28;;;;;;;;;45.25;39.75;;;;;;;;5073731;27;45558;-56
2023/03/01 07:02:53;;;;;;;;;41.00;39.00;;;;;;;;5073860;27;45451;-52
2023/03/01 07:05:19;;;;;;;;;41.25;38.50;;;;;;;;5073338;27;45572;-56
2023/03/01 07:07:44;;;;;;;;;43.75;37.75;;;;;;;;5073519;28;45437;-58
2023/03/01 07:10:10;;;;;;;;;38.25;35.75;;;;;;;;5073475;27;45382;-51
2023/03/01 07:12:35;;;;;;;;;45.25;35.50;;;;;;;;5073591;27;45493;-50
2023/03/01 07:15:00;;;;;;;;;38.25;37.50;;;;;;;;5073724;27;45587;-58
2023/03/01 07:17:25;;;;;;;;;43.75;40.25;;;;;;;;5073584;27;46321;-58
2023/03/01 07:19:50;;;;;;;;;38.00;32.75;;;;;;;;5073538;28;45451;-59
2023/03/01 07:22:16;;;;;;;;;43.25;40.00;;;;;;;;5073563;27;45546;-53
2023/03/01 07:24:41;;;;;;;;;40.50;37.75;;;;;;;;5073866;27;45461;-54
2023/03/01 07:27:06;;;;;;;;;40.50;39.25;;;;;;;;5073130;27;46379;-58
2023/03/01 07:29:32;;;;;;;;;41.25;38.50;;;;;;;;5073058;27;45429;-57
2023/03/01 07:31:58;;;;;;;;;42.50;39.50;;;;;;;;5073133;27;45749;-54
2023/03/01 07:34:23;;;;;;;;;45.50;39.75;;;;;;;;5073148;27;45533;-52
2023/03/01 07:36:49;;;;;;;;;44.00;41.25;;;;;;;;5073096;27;46343;-54
2023/03/01 07:39:15;;;;;;;;;46.75;41.00;;;;;;;;5073036;27;45599;-52
2023/03/01 07:41:40;;;;;;;;;50.00;44.25;;;;;;;;5073475;27;45470;-52
2023/03/01 07:44:06;;;;;;;;;44.75;40.50;;;;;;;;5055081;28;45495;-58
2023/03/01 07:46:31;;;;;;;;;45.00;40.25;;;;;;;;5073054;27;45568;-55
2023/03/01 07:48:58;;;;;;;;;53.75;42.75;;;;;;;;5073089;27;45469;-55
2023/03/01 07:51:23;;;;;;;;;45.50;41.50;;;;;;;;5055223;28;45511;-56
2023/03/01 07:53:48;;;;;;;;;42.25;40.00;;;;;;;;5073020;27;45542;-61
2023/03/01 07:56:14;;;;;;;;;46.00;40.50;;;;;;;;5058629;28;45807;-59
2023/03/01 07:58:40;;;;;;;;;48.00;42.50;;;;;;;;5072841;27;45600;-55
2023/03/01 08:01:07;;;;;;;;;48.25;41.50;;;;;;;;5072962;27;45538;-58
2023/03/01 08:03:33;;;;;;;;;39.25;37.75;;;;;;;;5072568;27;45410;-51
2023/03/01 08:06:04;;;;;;;;;43.75;40.00;;;;;;;;5072605;27;46484;-56
2023/03/01 08:08:29;;;;;;;;;50.00;42.00;;;;;;;;5072519;27;45542;-58
2023/03/01 08:10:58;;;;;;;;;43.75;41.00;;;;;;;;5074617;27;45434;-55
2023/03/01 08:13:24;;;;;;;;;43.25;39.25;;;;;;;;5057903;28;45477;-54
2023/03/01 08:15:49;;;;;;;;;50.50;42.00;;;;;;;;5076148;27;45540;-51
2023/03/01 08:18:15;;;;;;;;;45.00;41.75;;;;;;;;5076327;27;45640;-54
2023/03/01 08:20:40;;;;;;;;;52.00;42.50;;;;;;;;5076401;27;46213;-55
2023/03/01 08:23:05;;;;;;;;;48.25;42.50;;;;;;;;5076471;27;45573;-58
2023/03/01 08:25:30;;;;;;;;;47.00;41.50;;;;;;;;5057903;28;45472;-52
2023/03/01 08:27:55;;;;;;;;;52.50;43.50;;;;;;;;5075907;27;45629;-56
2023/03/01 08:30:23;;;;;;;;;48.00;43.50;;;;;;;;5075928;27;45557;-50
2023/03/01 08:32:48;;;;;;;;;48.75;42.25;;;;;;;;5076133;27;45492;-59
2023/03/01 08:35:14;;;;;;;;;49.50;41.25;;;;;;;;5076013;27;46623;-60
2023/03/01 08:37:39;;;;;;;;;55.25;45.00;;;;;;;;5076011;27;45402;-58
2023/03/01 08:40:07;;;;;;;;;49.50;41.50;;;;;;;;5076164;27;45643;-51
2023/03/01 08:42:32;;;;;;;;;50.75;41.25;;;;;;;;5076161;27;45469;-59
2023/03/01 08:44:57;;;;;;;;;45.50;41.75;;;;;;;;5075794;27;45482;-58
2023/03/01 08:47:22;;;;;;;;;48.25;39.00;;;;;;;;5075646;27;45453;-55
2023/03/01 08:49:49;;;;;;;;;5.25;2.25;;;;;;;;5058068;28;45488;-58
2023/03/01 08:52:14;;;;;;;;;51.00;43.75;;;;;;;;5075857;27;45490;-52
2023/03/01 08:54:39;;;;;;;;;42.75;40.25;;;;;;;;5074211;27;45439;-55
2023/03/01 08:57:05;;;;;;;;;46.50;41.75;;;;;;;;5062447;27;45450;-52
2023/03/01 08:59:30;;;;;;;;;44.75;41.25;;;;;;;;5075752;27;45474;-57
2023/03/01 09:01:55;;;;;;;;;49.25;42.50;;;;;;;;5075738;27;45467;-58
2023/03/01 09:04:21;;;;;;;;;53.25;43.25;;;;;;;;5075415;27;45961;-57
2023/03/01 09:06:47;;;;;;;;;45.50;38.50;;;;;;;;5075444;27;45453;-53
2023/03/01 09:09:15;;;;;;;;;47.50;38.50;;;;;;;;5075799;27;45506;-56
2023/03/01 09:11:40;;;;;;;;;37.50;32.50;;;;;;;;5075527;27;45479;-58
2023/03/01 09:14:05;;;;;;;;;51.00;41.75;;;;;;;;5075274;27;46037;-52
2023/03/01 09:16:35;;;;;;;;;40.25;37.00;;;;;;;;5075322;27;46252;-54
2023/03/01 09:19:00;;;;;;;;;48.50;44.25;;;;;;;;5075547;27;45533;-55
2023/03/01 09:21:25;;;;;;;;;47.00;40.75;;;;;;;;5075418;27;45434;-56
2023/03/01 09:23:51;;;;;;;;;46.00;39.00;;;;;;;;5075002;27;45445;-56
2023/03/01 09:26:18;;;;;;;;;46.50;41.00;;;;;;;;5056952;28;45552;-52
2023/03/01 09:28:44;;;;;;;;;43.00;39.00;;;;;;;;5056968;28;45451;-59
2023/03/01 09:31:12;;;;;;;;;43.00;41.00;;;;;;;;5075232;27;45502;-55
2023/03/01 09:33:37;;;;;;;;;46.75;41.50;;;;;;;;5075010;27;45621;-51
2023/03/01 09:36:04;;;;;;;;;48.50;43.00;;;;;;;;5074857;27;45537;-52
2023/03/01 09:38:29;;;;;;;;;40.00;36.50;;;;;;;;5075264;27;45593;-56
2023/03/01 09:40:54;;;;;;;;;43.50;39.75;;;;;;;;5075062;27;45571;-57
2023/03/01 09:43:25;;;;;;;;;47.00;41.00;;;;;;;;5074914;28;46020;-57
2023/03/01 09:45:52;;;;;;;;;47.00;39.50;;;;;;;;5074548;27;45510;-58
2023/03/01 09:48:21;;;;;;;;;44.75;40.75;;;;;;;;5074634;27;45504;-56
2023/03/01 09:50:47;;;;;;;;;47.50;41.75;;;;;;;;5073838;27;45470;-54
2023/03/01 09:53:17;;;;;;;;;51.00;44.25;;;;;;;;5056463;28;47942;-57
2023/03/01 09:55:44;;;;;;;;;52.25;40.25;;;;;;;;5064581;27;45522;-54
2023/03/01 09:58:27;;;;;;;;;49.00;41.25;;;;;;;;5070637;27;45491;-57
2023/03/01 10:00:53;;;;;;;;;51.00;42.00;;;;;;;;5074610;27;45616;-55
2023/03/01 10:03:34;;;;;;;;;43.75;40.00;;;;;;;;5074569;27;46081;-57
2023/03/01 10:06:02;;;;;;;;;54.00;43.75;;;;;;;;5074554;27;45439;-56
2023/03/01 10:08:41;;;;;;;;;47.50;40.00;;;;;;;;5074421;28;45545;-57
2023/03/01 10:11:17;;;;;;;;;44.75;38.25;;;;;;;;5074598;27;45546;-54
2023/03/01 10:13:48;;;;;;;;;54.75;46.75;;;;;;;;5074166;28;45507;-54
2023/03/01 10:16:21;;;;;;;;;48.00;41.25;;;;;;;;5074399;28;46113;-53
2023/03/01 10:18:48;;;;;;;;;44.75;39.75;;;;;;;;5074446;27;45601;-55
2023/03/01 10:21:16;;;;;;;;;48.00;39.75;;;;;;;;5074605;27;45742;-53
2023/03/01 10:23:42;;;;;;;;;50.50;39.25;;;;;;;;5073957;27;46314;-57
2023/03/01 10:26:19;;;;;;;;;43.75;39.50;;;;;;;;5074357;27;45478;-52
2023/03/01 10:28:47;;;;;;;;;40.00;38.25;;;;;;;;5073924;28;45419;-51
2023/03/01 10:31:19;;;;;;;;;50.75;40.50;;;;;;;;5074133;27;45476;-57
2023/03/01 10:33:44;;;;;;;;;49.50;41.75;;;;;;;;5073067;27;45513;-56
2023/03/01 10:36:09;;;;;;;;;42.00;38.00;;;;;;;;5074304;27;45512;-58
2023/03/01 10:38:54;;;;;;;;;43.50;39.50;;;;;;;;5074459;27;45494;-55
2023/03/01 10:41:23;;;;;;;;;52.50;44.00;;;;;;;;5048681;27;45598;-55
2023/03/01 10:43:48;;;;;;;;;48.00;41.00;;;;;;;;5074126;27;45516;-55
2023/03/01 10:46:23;;;;;;;;;45.50;41.00;;;;;;;;5073945;27;45509;-57
2023/03/01 10:49:05;;;;;;;;;48.00;41.25;;;;;;;;5074274;27;45529;-59
2023/03/01 10:51:30;;;;;;;;;44.00;37.25;;;;;;;;5074111;28;45518;-50
2023/03/01 10:53:55;;;;;;;;;48.50;41.25;;;;;;;;5073706;28;45619;-56
2023/03/01 10:56:21;;;;;;;;;40.00;36.00;;;;;;;;5059442;27;45416;-54
2023/03/01 10:58:59;;;;;;;;;46.25;39.50;;;;;;;;5074040;27;45538;-52
2023/03/01 11:01:32;;;;;;;;;41.25;39.00;;;;;;;;5073792;27;45387;-58
2023/03/01 11:04:03;;;;;;;;;38.25;35.50;;;;;;;;5073345;27;45980;-55
2023/03/01 11:06:28;;;;;;;;;45.00;37.75;;;;;;;;5073187;27;45574;-54
2023/03/01 11:08:54;;;;;;;;;40.00;36.75;;;;;;;;5073493;27;45390;-52
2023/03/01 11:11:19;;;;;;;;;48.00;39.00;;;;;;;;5073157;27;45497;-58
2023/03/01 11:14:02;;;;;;;;;47.75;37.75;;;;;;;;5054935;27;46119;-53
2023/03/01 11:16:27;;;;;;;;;43.50;39.25;;;;;;;;5073472;27;45548;-55
2023/03/01 11:19:01;;;;;;;;;38.00;33.25;;;;;;;;5073429;27;45434;-56
2023/03/01 11:21:28;;;;;;;;;41.25;39.00;;;;;;;;5073183;27;45645;-55
2023/03/01 11:23:53;;;;;;;;;49.75;43.00;;;;;;;;5073045;27;45412;-54
2023/03/01 11:26:19;;;;;;;;;44.00;39.50;;;;;;;;5073120;27;45407;-58
2023/03/01 11:28:49;;;;;;;;;59.25;47.25;;;;;;;;5073016;27;46179;-54
2023/03/01 11:31:16;;;;;;;;;42.25;35.75;;;;;;;;5064841;28;45544;-58
2023/03/01 11:33:51;;;;;;;;;46.00;41.25;;;;;;;;5067151;27;46010;-55
2023/03/01 11:36:17;;;;;;;;;53.25;42.00;;;;;;;;5072841;27;45553;-52
2023/03/01 11:38:42;;;;;;;;;52.50;41.25;;;;;;;;5073321;28;45633;-55
2023/03/01 11:41:12;;;;;;;;;40.75;35.75;;;;;;;;5072970;27;45403;-56
2023/03/01 11:43:53;;;;;;;;;46.50;39.75;;;;;;;;5055203;28;45545;-59
2023/03/01 11:46:33;;;;;;;;;45.25;36.50;;;;;;;;5044153;27;45603;-54
2023/03/01 11:49:17;;;;;;;;;46.50;40.00;;;;;;;;5072817;28;45446;-57
2023/03/01 11:51:57;;;;;;;;;41.75;38.00;;;;;;;;5072765;27;45576;-54
2023/03/01 11:54:38;;;;;;;;;46.25;38.75;;;;;;;;5054246;28;48290;-52
2023/03/01 11:57:06;;;;;;;;;40.00;38.50;;;;;;;;5045955;28;45525;-55
2023/03/01 11:59:50;;;;;;;;;42.75;38.75;;;;;;;;5072790;27;45692;-59
2023/03/01 12:02:18;;;;;;;;;45.75;38.00;;;;;;;;5047314;28;45585;-56
2023/03/01 12:05:00;;;;;;;;;42.00;37.50;;;;;;;;5072614;27;45520;-56
2023/03/01 12:07:44;;;;;;;;;47.00;39.00;;;;;;;;5048673;27;45488;-57
2023/03/01 12:10:09;;;;;;;;;43.50;36.25;;;;;;;;5054401;28;45546;-55
2023/03/01 12:12:47;;;;;;;;;51.50;39.50;;;;;;;;5072482;27;45545;-59
2023/03/01 12:15:32;;;;;;;;;41.00;38.75;;;;;;;;5072210;27;46116;-56
2023/03/01 12:18:04;;;;;;;;;41.00;38.25;;;;;;;;5054388;27;45610;-57
2023/03/01 12:20:38;;;;;;;;;40.00;36.50;;;;;;;;5072357;27;45486;-57
2023/03/01 12:23:03;;;;;;;;;43.25;38.00;;;;;;;;5072403;27;45546;-53
2023/03/01 12:25:31;;;;;;;;;50.25;41.50;;;;;;;;5071792;28;45482;-54
2023/03/01 12:28:11;;;;;;;;;50.50;41.50;;;;;;;;5072152;27;45621;-57
2023/03/01 12:30:59;;;;;;;;;44.00;38.50;;;;;;;;5072219;28;45561;-56
2023/03/01 12:33:43;;;;;;;;;46.00;38.75;;;;;;;;5071537;27;45478;-52
2023/03/01 12:36:14;;;;;;;;;46.00;38.75;;;;;;;;5044900;27;45455;-58
2023/03/01 12:38:39;;;;;;;;;36.00;35.25;;;;;;;;5072038;27;45501;-56
2023/03/01 12:41:10;;;;;;;;;39.00;36.50;;;;;;;;5072256;27;45506;-56
2023/03/01 12:43:47;;;;;;;;;43.75;36.50;;;;;;;;5072288;27;45506;-55
2023/03/01 12:46:30;;;;;;;;;46.00;39.50;;;;;;;;5071917;27;46317;-59
2023/03/01 12:49:09;;;;;;;;;43.75;38.00;;;;;;;;5072204;27;45499;-56
2023/03/01 12:51:37;;;;;;;;;44.25;40.00;;;;;;;;5072411;27;45611;-55
2023/03/01 12:54:11;;;;;;;;;48.25;38.25;;;;;;;;5072243;28;45476;-53
2023/03/01 12:56:38;;;;;;;;;46.75;37.50;;;;;;;;5059008;28;47307;-53
2023/03/01 12:59:11;;;;;;;;;38.00;35.50;;;;;;;;5057429;28;45818;-57
2023/03/01 13:01:42;;;;;;;;;40.75;35.75;;;;;;;;5075255;27;45529;-57
2023/03/01 13:04:10;;;;;;;;;48.25;39.25;;;;;;;;5075635;27;45513;-59
2023/03/01 13:06:45;;;;;;;;;43.00;36.25;;;;;;;;5075176;27;46006;-62
2023/03/01 13:09:19;;;;;;;;;43.75;38.00;;;;;;;;5075267;27;45500;-51
2023/03/01 13:11:44;;;;;;;;;42.75;37.25;;;;;;;;5075151;27;45502;-53
2023/03/01 13:14:22;;;;;;;;;37.50;35.50;;;;;;;;5075103;27;45414;-52
2023/03/01 13:16:51;;;;;;;;;47.25;40.75;;;;;;;;5075239;27;46009;-52
2023/03/01 13:19:17;;;;;;;;;40.75;35.50;;;;;;;;5075360;27;45526;-53
2023/03/01 13:21:43;;;;;;;;;44.25;37.00;;;;;;;;5075276;27;45550;-55
2023/03/01 13:24:27;;;;;;;;;38.00;35.00;;;;;;;;5074849;27;45716;-56
2023/03/01 13:27:10;;;;;;;;;45.00;38.75;;;;;;;;5074743;27;45456;-52
2023/03/01 13:29:46;;;;;;;;;46.25;38.25;;;;;;;;5074852;27;45533;-56
2023/03/01 13:32:38;;;;;;;;;45.75;38.25;;;;;;;;5074961;27;45449;-56
2023/03/01 13:35:04;;;;;;;;;40.00;36.00;;;;;;;;5068084;27;45419;-57
2023/03/01 13:37:38;;;;;;;;;45.00;38.75;;;;;;;;5074803;27;46182;-54
2023/03/01 13:40:23;;;;;;;;;44.00;38.50;;;;;;;;5074830;27;45506;-54
2023/03/01 13:42:55;;;;;;;;;39.50;35.50;;;;;;;;5074759;27;45511;-54
2023/03/01 13:45:24;;;;;;;;;30.50;28.25;;;;;;;;5074936;28;45954;-52
2023/03/01 13:47:53;;;;;;;;;41.25;36.25;;;;;;;;5074327;27;45493;-56
2023/03/01 13:50:20;;;;;;;;;43.00;36.00;;;;;;;;5074775;27;45461;-54
2023/03/01 13:52:53;;;;;;;;;42.50;38.00;;;;;;;;5074640;27;45498;-59
2023/03/01 13:55:18;;;;;;;;;41.25;37.75;;;;;;;;5068311;27;45537;-56
2023/03/01 13:57:53;;;;;;;;;39.75;36.00;;;;;;;;5066834;27;46211;-54
2023/03/01 14:00:44;;;;;;;;;44.00;38.50;;;;;;;;5074654;27;45506;-51
2023/03/01 14:03:18;;;;;;;;;40.25;38.00;;;;;;;;5071092;27;45442;-54
2023/03/01 14:05:57;;;;;;;;;43.25;38.00;;;;;;;;5074687;27;45569;-60
2023/03/01 14:08:24;;;;;;;;;40.00;37.75;;;;;;;;5073461;28;45956;-57
2023/03/01 14:11:06;;;;;;;;;36.50;34.75;;;;;;;;5074340;27;45566;-56
2023/03/01 14:13:50;;;;;;;;;41.00;37.50;;;;;;;;5074429;27;45534;-57
2023/03/01 14:16:24;;;;;;;;;35.75;35.25;;;;;;;;5074309;27;45549;-52
2023/03/01 14:19:12;;;;;;;;;36.75;35.00;;;;;;;;5074054;27;45568;-53
2023/03/01 14:21:37;;;;;;;;;31.00;27.50;;;;;;;;5074414;27;45539;-60